Time;durP1;ratioP1;P1;durP2;ratioP2;P2;SDS_P1;SDS_P2;PMS_P1;PMS_P2;Temp;Humidity;BMP_temperature;BMP_pressure;BME280_temperature;BME280_humidity;BME280_pressure;Samples;Min_cycle;Max_cycle;Signal;HPM_P1;HPM_P2
2020/12/01 00:05:15;;;;;;;16.00;14.27;;;;;;;;;;4445294;28;20107;-58
2020/12/01 00:07:40;;;;;;;17.65;13.73;;;;;;;;;;4247148;33;20495;-59
2020/12/01 00:10:08;;;;;;;16.62;13.85;;;;;;;;;;4246879;33;20112;-57
2020/12/01 00:12:34;;;;;;;16.42;14.05;;;;;;;;;;4233782;33;20127;-58
2020/12/01 00:15:00;;;;;;;16.35;13.80;;;;;;;;;;4246963;33;20092;-58
2020/12/01 00:17:26;;;;;;;14.82;13.25;;;;;;;;;;4222037;33;20107;-61
2020/12/01 00:19:52;;;;;;;15.80;14.07;;;;;;;;;;4246593;33;20092;-59
2020/12/01 00:22:18;;;;;;;15.70;14.07;;;;;;;;;;4246572;33;20136;-59
2020/12/01 00:24:44;;;;;;;15.38;13.77;;;;;;;;;;4246743;33;20126;-58
2020/12/01 00:27:10;;;;;;;16.05;14.25;;;;;;;;;;4246945;33;20108;-58
2020/12/01 00:29:36;;;;;;;20.52;14.48;;;;;;;;;;4246660;33;20234;-59
2020/12/01 00:32:04;;;;;;;17.48;14.38;;;;;;;;;;4246661;33;20480;-59
2020/12/01 00:34:30;;;;;;;16.83;13.57;;;;;;;;;;4246605;33;20104;-58
2020/12/01 00:36:55;;;;;;;16.20;14.57;;;;;;;;;;4246753;33;20134;-58
2020/12/01 00:39:21;;;;;;;16.23;14.15;;;;;;;;;;4246639;33;20101;-58
2020/12/01 00:41:50;;;;;;;16.85;14.73;;;;;;;;;;4246643;33;20109;-59
2020/12/01 00:44:16;;;;;;;17.33;14.60;;;;;;;;;;4246374;33;20123;-59
2020/12/01 00:46:42;;;;;;;17.02;15.23;;;;;;;;;;4246726;33;20108;-58
2020/12/01 00:49:08;;;;;;;16.25;14.43;;;;;;;;;;4246418;33;20139;-59
2020/12/01 00:51:33;;;;;;;17.73;15.00;;;;;;;;;;4246366;33;20619;-59
2020/12/01 00:53:59;;;;;;;18.77;15.18;;;;;;;;;;4247197;33;20143;-60
2020/12/01 00:56:25;;;;;;;19.60;16.50;;;;;;;;;;4248456;33;20113;-58
2020/12/01 00:58:51;;;;;;;18.67;15.57;;;;;;;;;;4248433;33;20188;-60
2020/12/01 01:01:17;;;;;;;18.23;15.82;;;;;;;;;;4248420;33;20200;-59
2020/12/01 01:03:43;;;;;;;18.83;16.35;;;;;;;;;;4235361;33;20156;-58
2020/12/01 01:06:11;;;;;;;19.37;16.23;;;;;;;;;;4248451;33;20107;-60
2020/12/01 01:08:40;;;;;;;20.02;15.93;;;;;;;;;;4248209;33;20555;-60
2020/12/01 01:11:09;;;;;;;19.60;17.15;;;;;;;;;;4248356;33;20116;-59
2020/12/01 01:13:35;;;;;;;19.12;15.80;;;;;;;;;;4223478;33;20213;-58
2020/12/01 01:16:01;;;;;;;18.55;16.17;;;;;;;;;;4235337;33;20117;-58
2020/12/01 01:18:27;;;;;;;20.30;16.23;;;;;;;;;;4248229;33;20148;-59
2020/12/01 01:20:53;;;;;;;16.95;15.13;;;;;;;;;;4248198;33;20528;-62
2020/12/01 01:23:19;;;;;;;17.85;15.57;;;;;;;;;;4248227;33;20236;-59
2020/12/01 01:25:45;;;;;;;20.48;16.40;;;;;;;;;;4248194;33;20540;-62
2020/12/01 01:28:10;;;;;;;18.60;16.60;;;;;;;;;;4248187;33;20100;-61
2020/12/01 01:30:39;;;;;;;19.80;16.10;;;;;;;;;;4248105;33;20108;-60
2020/12/01 01:33:08;;;;;;;18.37;16.40;;;;;;;;;;4248135;33;20124;-60
2020/12/01 01:35:34;;;;;;;19.17;17.15;;;;;;;;;;4235211;33;20144;-60
2020/12/01 01:38:09;;;;;;;20.60;17.35;;;;;;;;;;4248341;33;20528;-61
2020/12/01 01:40:35;;;;;;;21.23;17.67;;;;;;;;;;4248046;33;20120;-59
2020/12/01 01:43:01;;;;;;;21.12;17.65;;;;;;;;;;4248026;33;20104;-58
2020/12/01 01:45:47;;;;;;;21.77;17.85;;;;;;;;;;4247987;33;20128;-59
2020/12/01 01:48:19;;;;;;;19.00;16.87;;;;;;;;;;4248285;33;20128;-59
2020/12/01 01:51:03;;;;;;;19.60;17.50;;;;;;;;;;4223660;33;20136;-59
2020/12/01 01:53:30;;;;;;;20.70;17.85;;;;;;;;;;4236309;33;20520;-58
2020/12/01 01:55:57;;;;;;;20.30;18.17;;;;;;;;;;4223216;33;20543;-59
2020/12/01 01:58:25;;;;;;;20.15;18.05;;;;;;;;;;4223250;33;20574;-58
2020/12/01 02:01:00;;;;;;;21.55;18.05;;;;;;;;;;4223436;33;20185;-59
2020/12/01 02:03:37;;;;;;;20.30;17.75;;;;;;;;;;4247689;33;20143;-59
2020/12/01 02:06:05;;;;;;;20.88;18.67;;;;;;;;;;4234329;33;20120;-59
2020/12/01 02:08:31;;;;;;;22.67;17.62;;;;;;;;;;4248058;33;20108;-59
2020/12/01 02:10:57;;;;;;;21.37;18.40;;;;;;;;;;4223146;33;20218;-59
2020/12/01 02:13:44;;;;;;;24.15;20.48;;;;;;;;;;4234578;33;20144;-59
2020/12/01 02:16:10;;;;;;;24.55;20.15;;;;;;;;;;4247850;33;20521;-58
2020/12/01 02:18:36;;;;;;;22.40;19.35;;;;;;;;;;4247604;33;20092;-59
2020/12/01 02:21:24;;;;;;;22.27;19.98;;;;;;;;;;4234669;33;20188;-60
2020/12/01 02:23:50;;;;;;;23.25;19.15;;;;;;;;;;4247748;33;20096;-60
2020/12/01 02:26:16;;;;;;;24.30;21.00;;;;;;;;;;4247698;33;20759;-61
2020/12/01 02:28:41;;;;;;;26.10;21.40;;;;;;;;;;4247530;33;20529;-61
2020/12/01 02:31:07;;;;;;;23.05;19.98;;;;;;;;;;4247702;33;20124;-59
2020/12/01 02:33:33;;;;;;;24.33;20.67;;;;;;;;;;4247827;33;20104;-60
2020/12/01 02:35:59;;;;;;;23.55;21.15;;;;;;;;;;4247638;33;20163;-59
2020/12/01 02:38:25;;;;;;;25.02;22.35;;;;;;;;;;4247439;33;20128;-59
2020/12/01 02:41:12;;;;;;;24.58;21.05;;;;;;;;;;4247562;33;20445;-61
2020/12/01 02:43:39;;;;;;;23.70;20.85;;;;;;;;;;4247536;33;20183;-60
2020/12/01 02:46:05;;;;;;;22.55;20.15;;;;;;;;;;4247532;33;20741;-61
2020/12/01 02:48:30;;;;;;;22.98;19.95;;;;;;;;;;4247601;33;20120;-60
2020/12/01 02:50:56;;;;;;;38.58;21.85;;;;;;;;;;4246135;33;20120;-60
2020/12/01 02:53:22;;;;;;;23.08;20.67;;;;;;;;;;4234247;33;20528;-61
2020/12/01 02:55:48;;;;;;;22.67;20.12;;;;;;;;;;4247408;33;20535;-61
2020/12/01 02:58:14;;;;;;;22.35;19.87;;;;;;;;;;4247368;33;20100;-60
2020/12/01 03:00:40;;;;;;;25.05;21.95;;;;;;;;;;4247213;33;20124;-59
2020/12/01 03:03:06;;;;;;;25.52;21.15;;;;;;;;;;4247239;33;20235;-60
2020/12/01 03:05:31;;;;;;;23.40;20.90;;;;;;;;;;4247017;33;20640;-59
2020/12/01 03:07:57;;;;;;;28.05;24.15;;;;;;;;;;4247154;33;20155;-61
2020/12/01 03:10:23;;;;;;;25.40;21.40;;;;;;;;;;4247079;33;20516;-60
2020/12/01 03:12:49;;;;;;;23.33;20.83;;;;;;;;;;4247287;33;20460;-59
2020/12/01 03:15:16;;;;;;;23.73;21.25;;;;;;;;;;4247148;33;20104;-60
2020/12/01 03:17:42;;;;;;;22.37;19.98;;;;;;;;;;4246841;33;20321;-59
2020/12/01 03:20:08;;;;;;;26.12;19.92;;;;;;;;;;4244933;33;20528;-61
2020/12/01 03:22:34;;;;;;;23.08;19.67;;;;;;;;;;4245114;33;20152;-59
2020/12/01 03:25:00;;;;;;;25.35;22.02;;;;;;;;;;4244921;33;20228;-60
2020/12/01 03:27:26;;;;;;;23.58;21.10;;;;;;;;;;4244909;33;20109;-61
2020/12/01 03:29:51;;;;;;;23.15;20.48;;;;;;;;;;4244885;33;20109;-61
2020/12/01 03:32:17;;;;;;;22.15;19.75;;;;;;;;;;4244907;33;20698;-59
2020/12/01 03:34:43;;;;;;;25.37;20.23;;;;;;;;;;4246212;33;20244;-58
2020/12/01 03:37:09;;;;;;;24.37;20.27;;;;;;;;;;4246996;33;20195;-59
2020/12/01 03:39:35;;;;;;;22.87;20.48;;;;;;;;;;4247242;33;20200;-60
2020/12/01 03:42:01;;;;;;;22.17;19.65;;;;;;;;;;4247003;33;20128;-61
2020/12/01 03:44:29;;;;;;;23.12;20.62;;;;;;;;;;4247010;33;20103;-56
2020/12/01 03:46:56;;;;;;;24.45;20.85;;;;;;;;;;4245870;33;20532;-59
2020/12/01 03:49:22;;;;;;;22.45;19.30;;;;;;;;;;4246871;33;20143;-60
2020/12/01 03:51:48;;;;;;;27.00;21.27;;;;;;;;;;4246757;33;20536;-56
2020/12/01 03:54:14;;;;;;;21.98;19.62;;;;;;;;;;4246794;33;20182;-63
2020/12/01 03:56:40;;;;;;;21.75;17.45;;;;;;;;;;4246981;33;20242;-59
2020/12/01 03:59:06;;;;;;;21.37;19.00;;;;;;;;;;4246925;33;20102;-58
2020/12/01 04:01:32;;;;;;;21.77;18.98;;;;;;;;;;4246929;33;20127;-58
2020/12/01 04:03:58;;;;;;;22.83;20.42;;;;;;;;;;4233454;33;20108;-58
2020/12/01 04:06:24;;;;;;;20.98;18.77;;;;;;;;;;4247142;33;20120;-60
2020/12/01 04:08:50;;;;;;;19.92;17.85;;;;;;;;;;4247687;33;20124;-62
2020/12/01 04:11:17;;;;;;;19.73;17.60;;;;;;;;;;4246748;33;20100;-60
2020/12/01 04:13:42;;;;;;;20.85;18.60;;;;;;;;;;4246830;33;20108;-58
2020/12/01 04:16:21;;;;;;;20.10;17.87;;;;;;;;;;4247206;33;20104;-61
2020/12/01 04:18:50;;;;;;;22.10;19.20;;;;;;;;;;4247155;33;20208;-60
2020/12/01 04:21:16;;;;;;;20.23;18.15;;;;;;;;;;4246512;33;20309;-60
2020/12/01 04:23:42;;;;;;;21.33;17.85;;;;;;;;;;4246712;33;20697;-59
2020/12/01 04:26:08;;;;;;;19.90;16.95;;;;;;;;;;4246864;33;20192;-59
2020/12/01 04:28:34;;;;;;;17.92;16.05;;;;;;;;;;4246269;33;20485;-59
2020/12/01 04:30:59;;;;;;;21.20;17.40;;;;;;;;;;4246362;33;20120;-60
2020/12/01 04:33:25;;;;;;;20.83;17.37;;;;;;;;;;4246385;33;20515;-59
2020/12/01 04:35:51;;;;;;;20.05;16.77;;;;;;;;;;4246516;33;20223;-58
2020/12/01 04:38:17;;;;;;;20.23;18.08;;;;;;;;;;4246165;33;20136;-60
2020/12/01 04:40:43;;;;;;;19.95;17.70;;;;;;;;;;4246236;33;20144;-59
2020/12/01 04:43:25;;;;;;;21.08;17.58;;;;;;;;;;4246436;33;20227;-59
2020/12/01 04:45:51;;;;;;;20.80;18.17;;;;;;;;;;4233555;33;20108;-59
2020/12/01 04:48:46;;;;;;;20.58;18.17;;;;;;;;;;4233337;33;20108;-60
2020/12/01 04:51:38;;;;;;;20.77;17.75;;;;;;;;;;4246490;33;20289;-58
2020/12/01 04:54:43;;;;;;;21.33;17.12;;;;;;;;;;4219379;33;20242;-59
2020/12/01 04:57:16;;;;;;;19.52;17.00;;;;;;;;;;4224117;33;20128;-59
2020/12/01 05:00:15;;;;;;;20.20;17.90;;;;;;;;;;4246516;33;20223;-59
2020/12/01 05:02:56;;;;;;;20.10;17.33;;;;;;;;;;4232963;33;20207;-59
2020/12/01 05:05:33;;;;;;;19.92;17.12;;;;;;;;;;4234113;33;20127;-59
2020/12/01 05:08:11;;;;;;;19.50;17.40;;;;;;;;;;4234113;33;20203;-59
2020/12/01 05:10:37;;;;;;;21.83;17.67;;;;;;;;;;4246090;33;20133;-59
2020/12/01 05:13:16;;;;;;;23.98;17.42;;;;;;;;;;4233580;33;20132;-59
2020/12/01 05:15:42;;;;;;;18.75;16.05;;;;;;;;;;4233469;33;20104;-59
2020/12/01 05:18:19;;;;;;;18.45;15.38;;;;;;;;;;4221249;33;20116;-58
2020/12/01 05:20:50;;;;;;;17.83;14.45;;;;;;;;;;4245935;33;20131;-59
2020/12/01 05:23:18;;;;;;;17.10;15.07;;;;;;;;;;4245848;33;20473;-58
2020/12/01 05:25:43;;;;;;;17.85;15.13;;;;;;;;;;4221427;33;20113;-59
2020/12/01 05:28:11;;;;;;;17.05;14.60;;;;;;;;;;4245741;33;20507;-58
2020/12/01 05:30:38;;;;;;;17.30;14.65;;;;;;;;;;4245752;33;20156;-59
2020/12/01 05:33:18;;;;;;;17.52;14.50;;;;;;;;;;4245663;33;20103;-59
2020/12/01 05:35:44;;;;;;;18.77;14.43;;;;;;;;;;4245673;33;20607;-59
2020/12/01 05:38:12;;;;;;;17.20;15.40;;;;;;;;;;4245727;33;20100;-59
2020/12/01 05:40:38;;;;;;;17.87;15.23;;;;;;;;;;4246476;33;20100;-58
2020/12/01 05:43:04;;;;;;;19.67;14.07;;;;;;;;;;4223194;33;20299;-58
2020/12/01 05:45:35;;;;;;;17.45;13.75;;;;;;;;;;4248097;33;20112;-58
2020/12/01 05:48:19;;;;;;;23.23;15.40;;;;;;;;;;4247980;33;20112;-58
2020/12/01 05:50:57;;;;;;;19.52;14.60;;;;;;;;;;4234546;33;20513;-58
2020/12/01 05:53:23;;;;;;;18.87;15.10;;;;;;;;;;4234726;33;20105;-59
2020/12/01 05:56:13;;;;;;;16.67;14.05;;;;;;;;;;4247946;33;20101;-59
2020/12/01 05:58:42;;;;;;;18.70;14.15;;;;;;;;;;4223773;33;20112;-58
2020/12/01 06:01:08;;;;;;;18.12;13.98;;;;;;;;;;4247716;33;20117;-58
2020/12/01 06:03:40;;;;;;;15.98;14.27;;;;;;;;;;4234832;33;20750;-58
2020/12/01 06:06:07;;;;;;;15.45;13.88;;;;;;;;;;4247745;33;20124;-60
2020/12/01 06:08:49;;;;;;;18.33;14.93;;;;;;;;;;4223154;33;20514;-58
2020/12/01 06:11:26;;;;;;;16.27;14.50;;;;;;;;;;4247651;33;20113;-59
2020/12/01 06:13:54;;;;;;;20.00;15.88;;;;;;;;;;4234553;33;20094;-58
2020/12/01 06:16:32;;;;;;;16.75;14.90;;;;;;;;;;4234859;33;20109;-59
2020/12/01 06:19:19;;;;;;;18.02;15.73;;;;;;;;;;4247570;33;20639;-58
2020/12/01 06:22:03;;;;;;;21.92;15.57;;;;;;;;;;4247498;33;20128;-58
2020/12/01 06:25:06;;;;;;;17.33;15.40;;;;;;;;;;4247477;33;20129;-59
2020/12/01 06:27:57;;;;;;;20.95;14.77;;;;;;;;;;4247481;33;20116;-58
2020/12/01 06:30:54;;;;;;;29.90;21.98;;;;;;;;;;4247560;33;20089;-59
2020/12/01 06:33:32;;;;;;;19.30;15.75;;;;;;;;;;4247468;33;20121;-59
2020/12/01 06:36:13;;;;;;;20.45;14.85;;;;;;;;;;4234676;33;20612;-59
2020/12/01 06:38:42;;;;;;;21.12;14.10;;;;;;;;;;4234277;33;20092;-59
2020/12/01 06:41:14;;;;;;;17.08;14.70;;;;;;;;;;4247174;33;20492;-59
2020/12/01 06:43:47;;;;;;;17.30;12.30;;;;;;;;;;4247358;33;20135;-58
2020/12/01 06:46:39;;;;;;;14.45;10.63;;;;;;;;;;4247294;33;20117;-58
2020/12/01 06:49:06;;;;;;;14.50;10.52;;;;;;;;;;4234361;33;20441;-59
2020/12/01 06:51:32;;;;;;;12.55;11.30;;;;;;;;;;4222743;33;20258;-58
2020/12/01 06:54:09;;;;;;;12.90;10.45;;;;;;;;;;4234128;33;20531;-58
2020/12/01 06:56:35;;;;;;;14.75;10.75;;;;;;;;;;4247405;33;20231;-57
2020/12/01 06:59:06;;;;;;;11.40;10.20;;;;;;;;;;4247505;33;20645;-58
2020/12/01 07:01:32;;;;;;;13.32;10.80;;;;;;;;;;4247138;33;20105;-58
2020/12/01 07:04:23;;;;;;;13.98;10.25;;;;;;;;;;4247166;33;20114;-59
2020/12/01 07:06:55;;;;;;;13.80;11.95;;;;;;;;;;4240551;33;20112;-59
2020/12/01 07:09:33;;;;;;;14.02;11.07;;;;;;;;;;4234102;33;20107;-59
2020/12/01 07:12:08;;;;;;;13.23;10.98;;;;;;;;;;4232443;33;20219;-59
2020/12/01 07:14:45;;;;;;;15.48;11.00;;;;;;;;;;4247434;33;20172;-59
2020/12/01 07:17:20;;;;;;;13.57;10.50;;;;;;;;;;4247484;33;20247;-59
2020/12/01 07:19:53;;;;;;;10.85;9.30;;;;;;;;;;4247247;33;20097;-60
2020/12/01 07:22:49;;;;;;;10.30;9.02;;;;;;;;;;4247081;33;20128;-60
2020/12/01 07:25:21;;;;;;;9.63;8.63;;;;;;;;;;4247094;33;20142;-60
2020/12/01 07:28:04;;;;;;;12.50;8.05;;;;;;;;;;4247174;33;20115;-60
2020/12/01 07:30:34;;;;;;;8.90;8.00;;;;;;;;;;4233896;33;20097;-60
2020/12/01 07:33:03;;;;;;;10.63;8.05;;;;;;;;;;4247452;33;20144;-60
2020/12/01 07:35:42;;;;;;;10.45;7.97;;;;;;;;;;4247017;33;20105;-60
2020/12/01 07:38:35;;;;;;;9.90;8.10;;;;;;;;;;4247023;33;20128;-60
2020/12/01 07:41:13;;;;;;;10.32;8.43;;;;;;;;;;4247084;33;20112;-59
2020/12/01 07:43:38;;;;;;;13.05;9.10;;;;;;;;;;4247180;33;20132;-59
2020/12/01 07:46:04;;;;;;;11.35;8.68;;;;;;;;;;4246928;33;20227;-59
2020/12/01 07:48:30;;;;;;;9.43;7.93;;;;;;;;;;4247138;33;20528;-59
2020/12/01 07:51:04;;;;;;;10.30;8.57;;;;;;;;;;4246942;33;20552;-59
2020/12/01 07:53:30;;;;;;;11.23;9.02;;;;;;;;;;4247012;33;20108;-60
2020/12/01 07:55:56;;;;;;;11.73;8.52;;;;;;;;;;4221899;33;20599;-60
2020/12/01 07:58:26;;;;;;;10.18;7.68;;;;;;;;;;4246893;33;20096;-60
2020/12/01 08:00:57;;;;;;;9.05;7.82;;;;;;;;;;4246714;33;20099;-59
2020/12/01 08:03:25;;;;;;;8.82;6.97;;;;;;;;;;4233152;33;20117;-59
2020/12/01 08:05:51;;;;;;;10.82;7.90;;;;;;;;;;4247302;33;20549;-57
2020/12/01 08:08:21;;;;;;;9.05;7.72;;;;;;;;;;4233638;33;20127;-60
2020/12/01 08:10:48;;;;;;;9.73;6.75;;;;;;;;;;4246596;33;20210;-60
2020/12/01 08:13:14;;;;;;;7.93;6.60;;;;;;;;;;4222065;33;20109;-57
2020/12/01 08:15:40;;;;;;;9.73;7.85;;;;;;;;;;4233850;33;20207;-59
2020/12/01 08:18:07;;;;;;;9.57;7.95;;;;;;;;;;4247023;33;20138;-59
2020/12/01 08:20:32;;;;;;;7.10;6.10;;;;;;;;;;4221752;33;20120;-60
2020/12/01 08:23:03;;;;;;;8.18;6.82;;;;;;;;;;4233621;33;20208;-60
2020/12/01 08:25:29;;;;;;;6.57;5.87;;;;;;;;;;4233766;33;20216;-59
2020/12/01 08:28:07;;;;;;;7.65;6.32;;;;;;;;;;4233594;33;20131;-60
2020/12/01 08:31:01;;;;;;;7.65;6.28;;;;;;;;;;4246433;33;20117;-59
2020/12/01 08:34:03;;;;;;;8.73;6.30;;;;;;;;;;4217249;33;20134;-59
2020/12/01 08:36:41;;;;;;;8.45;6.70;;;;;;;;;;4246587;33;20235;-59
2020/12/01 08:39:18;;;;;;;8.32;6.72;;;;;;;;;;4246720;33;20088;-59
2020/12/01 08:41:54;;;;;;;9.02;7.10;;;;;;;;;;4246606;33;20111;-59
2020/12/01 08:44:40;;;;;;;7.07;6.37;;;;;;;;;;4233328;33;20113;-59
2020/12/01 08:47:06;;;;;;;;;;;;;;;;;;4246761;33;20124;-61
2020/12/01 08:49:44;;;;;;;10.00;6.93;;;;;;;;;;4233228;33;20000;-61
2020/12/01 08:52:34;;;;;;;10.80;6.72;;;;;;;;;;4233556;33;20097;-61
2020/12/01 08:55:19;;;;;;;11.50;6.78;;;;;;;;;;4246216;33;20120;-61
2020/12/01 08:57:44;;;;;;;6.78;6.07;;;;;;;;;;4246324;33;20120;-62
2020/12/01 09:00:15;;;;;;;9.63;6.20;;;;;;;;;;4246232;33;20113;-61
2020/12/01 09:02:43;;;;;;;8.20;7.03;;;;;;;;;;4246297;33;20121;-61
2020/12/01 09:05:31;;;;;;;10.98;7.62;;;;;;;;;;4245878;33;20476;-61
2020/12/01 09:08:59;;;;;;;10.75;7.80;;;;;;;;;;4246217;33;20227;-61
2020/12/01 09:14:40;;;;;;;8.57;6.40;;;;;;;;;;4216732;33;20128;-60
2020/12/01 09:17:36;;;;;;;8.07;6.70;;;;;;;;;;4245154;33;20116;-62
2020/12/01 09:20:24;;;;;;;9.15;6.65;;;;;;;;;;4234374;33;20122;-59
2020/12/01 09:22:50;;;;;;;10.55;6.82;;;;;;;;;;4247895;33;20739;-61
2020/12/01 09:25:26;;;;;;;10.20;6.97;;;;;;;;;;4247816;33;20116;-61
2020/12/01 09:27:52;;;;;;;;;;;;;;;;;;4235890;33;20176;-61
2020/12/01 09:30:28;;;;;;;;;;;;;;;;;;4248165;33;19969;-62
2020/12/01 09:32:54;;;;;;;8.38;6.20;;;;;;;;;;4247674;33;19984;-61
2020/12/01 09:35:20;;;;;;;9.23;6.45;;;;;;;;;;4247742;33;20120;-60
2020/12/01 09:37:46;;;;;;;9.68;6.50;;;;;;;;;;4247774;33;20207;-61
2020/12/01 09:40:12;;;;;;;8.02;6.03;;;;;;;;;;4247796;33;20143;-61
2020/12/01 09:42:40;;;;;;;9.93;6.10;;;;;;;;;;4235021;33;20119;-61
2020/12/01 09:47:38;;;;;;;9.50;6.53;;;;;;;;;;4247994;33;20123;-61
2020/12/01 09:50:05;;;;;;;10.82;7.05;;;;;;;;;;4247841;33;20260;-61
2020/12/01 09:52:58;;;;;;;14.15;7.53;;;;;;;;;;4244131;33;20104;-62
2020/12/01 10:14:04;;;;;;;9.70;6.37;;;;;;;;;;4247524;33;20517;-60
2020/12/01 10:36:51;;;;;;;5.62;5.12;;;;;;;;;;4247460;33;20147;-60
2020/12/01 10:39:17;;;;;;;8.50;5.32;;;;;;;;;;4247342;33;20122;-61
2020/12/01 10:41:43;;;;;;;11.02;6.32;;;;;;;;;;4247114;33;20207;-60
2020/12/01 10:44:09;;;;;;;6.53;5.80;;;;;;;;;;4247415;33;20579;-61
2020/12/01 10:46:35;;;;;;;6.87;6.15;;;;;;;;;;4247354;33;20120;-61
2020/12/01 10:49:01;;;;;;;8.65;6.53;;;;;;;;;;4247135;33;20512;-62
2020/12/01 10:51:27;;;;;;;9.77;6.53;;;;;;;;;;4245280;33;20552;-62
2020/12/01 10:53:53;;;;;;;8.02;6.95;;;;;;;;;;4232254;33;20207;-62
2020/12/01 10:56:19;;;;;;;7.10;5.95;;;;;;;;;;4245487;33;20120;-62
2020/12/01 10:58:46;;;;;;;10.52;7.35;;;;;;;;;;4245357;33;20564;-60
2020/12/01 11:01:12;;;;;;;13.13;6.70;;;;;;;;;;4247135;33;20096;-60
2020/12/01 11:03:39;;;;;;;12.15;6.50;;;;;;;;;;4247113;33;20116;-59
2020/12/01 11:06:05;;;;;;;8.85;7.93;;;;;;;;;;4247212;33;20217;-59
2020/12/01 11:08:31;;;;;;;9.95;8.38;;;;;;;;;;4247297;33;20101;-59
2020/12/01 11:10:57;;;;;;;9.00;7.55;;;;;;;;;;4247101;33;20303;-59
2020/12/01 11:13:23;;;;;;;11.35;8.30;;;;;;;;;;4246568;33;20120;-59
2020/12/01 11:15:48;;;;;;;11.73;7.75;;;;;;;;;;4246955;33;20108;-60
2020/12/01 11:18:14;;;;;;;7.65;6.80;;;;;;;;;;4246921;33;20516;-60
2020/12/01 11:20:41;;;;;;;11.35;8.07;;;;;;;;;;4246741;33;20112;-59
2020/12/01 11:23:07;;;;;;;9.25;7.20;;;;;;;;;;4247423;33;20581;-60
2020/12/01 11:25:33;;;;;;;9.30;7.60;;;;;;;;;;4246860;33;20109;-59
2020/12/01 11:27:59;;;;;;;10.18;7.87;;;;;;;;;;4246857;33;20512;-60
2020/12/01 11:30:25;;;;;;;13.73;7.57;;;;;;;;;;4247047;33;20527;-59
2020/12/01 11:32:51;;;;;;;10.25;7.40;;;;;;;;;;4247081;33;20614;-59
2020/12/01 11:35:18;;;;;;;12.65;8.23;;;;;;;;;;4246742;33;20136;-60
2020/12/01 11:37:45;;;;;;;8.75;7.82;;;;;;;;;;4246147;33;20097;-60
2020/12/01 11:40:11;;;;;;;11.25;7.68;;;;;;;;;;4246540;33;20128;-60
2020/12/01 11:42:37;;;;;;;11.75;8.35;;;;;;;;;;4246406;33;20215;-60
2020/12/01 11:45:05;;;;;;;9.45;8.38;;;;;;;;;;4233544;33;20140;-60
2020/12/01 11:47:31;;;;;;;10.85;8.25;;;;;;;;;;4246730;33;20097;-59
2020/12/01 11:49:57;;;;;;;8.65;7.75;;;;;;;;;;4246632;33;20265;-59
2020/12/01 11:52:22;;;;;;;9.52;8.57;;;;;;;;;;4246528;33;20567;-59
2020/12/01 11:54:48;;;;;;;9.45;7.37;;;;;;;;;;4246832;33;20129;-60
2020/12/01 11:57:14;;;;;;;10.23;8.05;;;;;;;;;;4246344;33;20214;-60
2020/12/01 11:59:40;;;;;;;14.57;8.10;;;;;;;;;;4246471;33;20115;-60
2020/12/01 12:02:06;;;;;;;7.87;7.05;;;;;;;;;;4246327;33;20123;-59
2020/12/01 12:04:32;;;;;;;11.95;8.38;;;;;;;;;;4246580;33;20116;-59
2020/12/01 12:06:59;;;;;;;9.13;8.23;;;;;;;;;;4246448;33;20104;-59
2020/12/01 12:09:25;;;;;;;12.30;8.77;;;;;;;;;;4246471;33;20212;-60
2020/12/01 12:11:51;;;;;;;13.35;9.30;;;;;;;;;;4246535;33;20196;-59
2020/12/01 12:14:17;;;;;;;12.20;8.90;;;;;;;;;;4246751;33;20135;-60
2020/12/01 12:16:43;;;;;;;9.07;7.87;;;;;;;;;;4246337;33;20512;-59
2020/12/01 12:19:09;;;;;;;13.05;8.82;;;;;;;;;;4233081;33;20096;-59
2020/12/01 12:21:35;;;;;;;10.52;8.55;;;;;;;;;;4246497;33;20147;-59
2020/12/01 12:24:01;;;;;;;10.55;7.53;;;;;;;;;;4246541;33;20518;-60
2020/12/01 12:26:27;;;;;;;9.50;8.25;;;;;;;;;;4245889;33;20105;-59
2020/12/01 12:28:53;;;;;;;13.88;11.75;;;;;;;;;;4246332;33;20546;-60
2020/12/01 12:31:19;;;;;;;10.13;8.40;;;;;;;;;;4246211;33;20113;-59
2020/12/01 12:33:45;;;;;;;10.18;8.32;;;;;;;;;;4246329;33;20145;-60
2020/12/01 12:36:11;;;;;;;10.45;8.65;;;;;;;;;;4246185;33;20109;-58
2020/12/01 12:38:37;;;;;;;10.38;7.97;;;;;;;;;;4246217;33;20136;-59
2020/12/01 12:41:03;;;;;;;8.98;8.07;;;;;;;;;;4246442;33;20135;-60
2020/12/01 12:43:29;;;;;;;9.13;8.18;;;;;;;;;;4232986;33;20124;-59
2020/12/01 12:45:55;;;;;;;10.82;8.52;;;;;;;;;;4246180;33;20097;-59
2020/12/01 12:48:21;;;;;;;11.05;8.93;;;;;;;;;;4245919;33;20119;-58
2020/12/01 12:50:47;;;;;;;9.32;8.43;;;;;;;;;;4247066;33;20121;-60
2020/12/01 12:53:13;;;;;;;11.55;10.18;;;;;;;;;;4248523;33;20523;-60
2020/12/01 12:55:39;;;;;;;11.57;8.35;;;;;;;;;;4248018;33;20105;-60
2020/12/01 12:58:05;;;;;;;12.10;8.27;;;;;;;;;;4247888;33;20108;-60
2020/12/01 13:00:31;;;;;;;10.18;9.07;;;;;;;;;;4248165;33;20120;-60
2020/12/01 13:02:57;;;;;;;9.95;8.52;;;;;;;;;;4247994;33;20115;-59
2020/12/01 13:05:23;;;;;;;15.13;8.93;;;;;;;;;;4248001;33;20136;-59
2020/12/01 13:07:49;;;;;;;9.52;8.52;;;;;;;;;;4248089;33;20104;-59
2020/12/01 13:10:15;;;;;;;10.88;9.70;;;;;;;;;;4247905;33;20323;-59
2020/12/01 13:12:41;;;;;;;12.65;11.20;;;;;;;;;;4246806;33;20200;-60
2020/12/01 13:15:07;;;;;;;12.68;10.00;;;;;;;;;;4232604;33;20113;-58
2020/12/01 13:17:34;;;;;;;12.35;10.60;;;;;;;;;;4245742;33;20562;-59
2020/12/01 13:20:00;;;;;;;15.30;10.52;;;;;;;;;;4243786;33;20121;-59
2020/12/01 13:22:26;;;;;;;12.77;9.10;;;;;;;;;;4235025;33;20539;-58
2020/12/01 13:24:52;;;;;;;12.63;9.75;;;;;;;;;;4234758;33;20449;-59
2020/12/01 13:27:18;;;;;;;12.15;10.18;;;;;;;;;;4247825;33;20143;-58
2020/12/01 13:29:44;;;;;;;12.27;10.40;;;;;;;;;;4247420;33;20127;-59
2020/12/01 13:32:10;;;;;;;14.23;10.45;;;;;;;;;;4247783;33;20132;-57
2020/12/01 13:34:36;;;;;;;13.68;9.57;;;;;;;;;;4247533;33;20207;-58
2020/12/01 13:37:02;;;;;;;12.18;10.45;;;;;;;;;;4247943;33;20592;-58
2020/12/01 13:39:28;;;;;;;14.90;11.00;;;;;;;;;;4247895;33;20112;-58
2020/12/01 13:41:54;;;;;;;11.98;10.05;;;;;;;;;;4247823;33;20123;-59
2020/12/01 13:44:20;;;;;;;10.70;9.55;;;;;;;;;;4234376;33;20211;-60
2020/12/01 13:46:46;;;;;;;10.88;9.50;;;;;;;;;;4247693;33;20104;-56
2020/12/01 13:49:13;;;;;;;12.18;9.45;;;;;;;;;;4234441;33;20088;-57
2020/12/01 13:51:39;;;;;;;16.23;10.00;;;;;;;;;;4247709;33;20101;-58
2020/12/01 13:54:05;;;;;;;12.65;9.98;;;;;;;;;;4254595;33;20112;-57
2020/12/01 13:56:31;;;;;;;11.50;8.93;;;;;;;;;;4223093;33;20202;-61
2020/12/01 13:58:58;;;;;;;11.52;9.25;;;;;;;;;;4247745;33;20443;-57
2020/12/01 14:01:28;;;;;;;12.80;8.50;;;;;;;;;;4246078;33;20144;-57
2020/12/01 14:03:54;;;;;;;11.80;9.18;;;;;;;;;;4247164;33;20096;-58
2020/12/01 14:06:19;;;;;;;10.18;7.80;;;;;;;;;;4247482;33;20219;-58
2020/12/01 14:08:46;;;;;;;11.48;8.80;;;;;;;;;;4247209;33;20292;-57
2020/12/01 14:11:16;;;;;;;12.27;9.38;;;;;;;;;;4247504;33;20212;-59
2020/12/01 14:13:42;;;;;;;11.25;8.05;;;;;;;;;;4247700;33;20437;-60
2020/12/01 14:16:08;;;;;;;10.75;9.40;;;;;;;;;;4247494;33;20180;-59
2020/12/01 14:18:34;;;;;;;12.55;10.18;;;;;;;;;;4247234;33;20112;-58
2020/12/01 14:21:02;;;;;;;17.23;12.18;;;;;;;;;;4234294;33;20121;-57
2020/12/01 14:23:28;;;;;;;12.70;11.07;;;;;;;;;;4247077;33;20152;-58
2020/12/01 14:25:55;;;;;;;11.23;10.00;;;;;;;;;;4234654;33;20215;-58
2020/12/01 14:28:21;;;;;;;12.65;11.23;;;;;;;;;;4247350;33;20136;-60
2020/12/01 14:30:49;;;;;;;13.35;11.48;;;;;;;;;;4247385;33;20125;-60
2020/12/01 14:33:15;;;;;;;12.52;9.52;;;;;;;;;;4234283;33;20101;-60
2020/12/01 14:35:41;;;;;;;12.20;9.40;;;;;;;;;;4234001;33;20109;-60
2020/12/01 14:38:08;;;;;;;10.48;8.57;;;;;;;;;;4247288;33;20559;-60
2020/12/01 14:40:34;;;;;;;13.95;10.38;;;;;;;;;;4222214;33;20097;-60
2020/12/01 14:43:01;;;;;;;10.25;8.27;;;;;;;;;;4247256;33;20199;-57
2020/12/01 14:45:28;;;;;;;9.35;7.85;;;;;;;;;;4247031;33;20116;-57
2020/12/01 14:48:04;;;;;;;11.15;8.50;;;;;;;;;;4247548;33;20188;-57
2020/12/01 14:50:43;;;;;;;10.55;8.85;;;;;;;;;;4234219;33;20101;-57
2020/12/01 14:53:35;;;;;;;10.05;8.38;;;;;;;;;;4233548;33;20120;-55
2020/12/01 14:56:29;;;;;;;11.55;9.25;;;;;;;;;;4219615;33;20139;-53
2020/12/01 14:59:16;;;;;;;9.70;8.70;;;;;;;;;;4220567;33;20105;-57
2020/12/01 15:02:04;;;;;;;8.35;7.30;;;;;;;;;;4232754;33;20117;-55
2020/12/01 15:04:32;;;;;;;9.23;7.03;;;;;;;;;;4232662;33;20109;-59
2020/12/01 15:07:14;;;;;;;8.02;7.22;;;;;;;;;;4232890;33;20098;-59
2020/12/01 15:10:23;;;;;;;8.23;7.03;;;;;;;;;;4221831;33;20105;-59
2020/12/01 15:12:56;;;;;;;9.88;7.85;;;;;;;;;;4216895;33;20117;-60
2020/12/01 15:15:26;;;;;;;10.82;8.35;;;;;;;;;;4220427;33;20136;-59
2020/12/01 15:17:54;;;;;;;9.10;7.35;;;;;;;;;;4232951;33;20128;-56
2020/12/01 15:20:22;;;;;;;7.82;7.03;;;;;;;;;;4233097;33;20164;-58
2020/12/01 15:22:50;;;;;;;12.30;8.77;;;;;;;;;;4219935;33;20465;-58
2020/12/01 15:25:25;;;;;;;11.57;8.30;;;;;;;;;;4232969;33;20347;-58
2020/12/01 15:27:54;;;;;;;8.23;7.43;;;;;;;;;;4220026;33;20097;-57
2020/12/01 15:30:20;;;;;;;11.45;8.13;;;;;;;;;;4220212;33;20215;-56
2020/12/01 15:32:47;;;;;;;10.18;8.35;;;;;;;;;;4232917;33;20140;-59